Folsom Firecracker
4 Jul 2019

     

Page 1 of 11 (507 items)
PosNet PosRace NoNameTimeNet TimeCategoryCat PosNet Cat PosAgeGenderGen PosNet Gender PosCityPace
3333326Miah Johnson00:21:21.7700:21:21.011-14 Yrs 1113Female88Folsom6:53 min/m
5353350Natalie Koning00:24:28.0100:24:24.961-14 Yrs 2214Female1515Folsom7:53 min/m
7070775Kenie Teeters00:26:15.9600:26:14.561-14 Yrs 3314Female2424Folsom8:28 min/m
8383217Aubrey Field00:27:55.6000:27:35.611-14 Yrs 4413Female2929Folsom9:00 min/m
9797183Mikyah Dixon00:28:32.0400:28:05.601-14 Yrs 5510Female3838Suisun City9:12 min/m
122122560Elise Sale00:29:47.5400:29:41.871-14 Yrs 668Female4949El Dorado Hills9:36 min/m
147147557Malea Salcedo00:31:22.9800:31:01.321-14 Yrs 7711Female6363Folsom10:07 min/m
151151182Breahna Dixon00:31:34.3300:31:07.251-14 Yrs 8812Female6565Suisun City10:11 min/m
152152127Kayla Chrum00:31:34.3700:31:07.791-14 Yrs 9911Female6666Fairfield10:11 min/m
156156123Faith Caylor00:31:30.3900:31:27.511-14 Yrs 101014Female6868Folsom10:09 min/m
177177374Darby Lewis00:32:40.5100:32:34.031-14 Yrs 111114Female7979Shingle Springs10:32 min/m
193193308Logan Horan00:33:23.0500:33:05.891-14 Yrs 121212Female9191Folsom10:46 min/m
226226517Anna Popoff00:35:08.2900:34:43.971-14 Yrs 131311Female105105Folsom11:20 min/m
242242646Jocelyn Westerhaus00:36:01.6700:35:33.961-14 Yrs 14148Female115115Sacramento11:37 min/m
245245347Alyssa Koester00:35:59.0400:35:56.021-14 Yrs 151510Female118118Citrus Heights11:36 min/m
280280647Liliana Westerhaus00:38:47.1600:38:19.271-14 Yrs 16169Female139139Sacramento12:30 min/m
308308621Clara Varner00:41:16.9800:40:57.371-14 Yrs 17176Female157157Folsom13:19 min/m
335335757Cadence Cox00:44:30.5100:44:00.771-14 Yrs 181810Female176176El Dorado Hills14:21 min/m
344344671Kylie Yamagata00:47:03.7100:45:22.101-14 Yrs 19198Female182182Citrus Heights15:10 min/m
36236296Casey Britton00:48:53.2200:48:41.531-14 Yrs 202014Female194194Folsom15:46 min/m
365365388Emma Lyons00:49:29.5300:48:51.881-14 Yrs 212113Female196196Folsom15:57 min/m
384384439Charli-Ruth Molitor00:53:12.4600:51:59.991-14 Yrs 22225Female211211Folsom17:09 min/m
387387286Mckenna Hembree00:53:15.3000:52:02.291-14 Yrs 23236Female214214Folsom17:10 min/m
400400380Sirisha Lingam00:53:18.7600:53:05.091-14 Yrs 24248Female223223Folsom17:11 min/m
421421214Theresa Ferguson00:57:02.9200:56:24.121-14 Yrs 252513Female239239Antelope18:24 min/m
42842822Annabeth Adamson00:57:36.8100:57:20.441-14 Yrs 26269Female245245Orangevale18:35 min/m
436436535Willow Renfro00:59:05.9600:58:30.121-14 Yrs 27276Female252252Orangevale19:03 min/m
438438534Violet Renfro00:59:22.2000:58:46.191-14 Yrs 282810Female254254Orangevale19:09 min/m
457457806Paula Jung01:09:04.6001:08:18.101-14 Yrs 29297Female269269Bethel22:16 min/m
462462807Ashley Jung01:09:33.8101:08:47.501-14 Yrs 30303Female272272Bethel22:26 min/m
259Ally Goosen00:08:33.4900:00:00.001-14 Yrs 7FemaleAntelope2:45 min/m
2121768Joey Johnson00:20:44.5700:20:40.891-14 Yrs 1114Male1818Folsom6:41 min/m
2424334Carson Karr00:20:55.1300:20:53.531-14 Yrs 2213Male2121El Dorado Hills6:44 min/m
3535277Max Harding00:21:39.9900:21:39.421-14 Yrs 3313Male2727Folsom6:59 min/m
3737164Connor Crebar00:21:54.5300:21:51.071-14 Yrs 4414Male2828Folsom7:04 min/m
515180Alexander Blount00:24:20.0300:24:14.241-14 Yrs 5511Male3737Folsom7:50 min/m
5959726Josh Hooey00:24:51.1900:24:49.941-14 Yrs 6613Male4141Folsom8:01 min/m
717193Jackson Brewer00:26:16.6800:26:16.311-14 Yrs 7713Male4747El Dorado Hills8:28 min/m
7373152Dalton Corriea00:26:35.5400:26:23.301-14 Yrs 8813Male4848Lincoln8:34 min/m
8484558Matteo Salcedo00:27:55.6400:27:35.651-14 Yrs 9913Male5555Folsom9:00 min/m
108108552Alex Rowe00:29:05.7900:28:58.281-14 Yrs 101014Male6565Lincoln9:23 min/m
109109759Nathan Cox00:29:03.7200:29:00.041-14 Yrs 111111Male6666El Dorado Hills9:22 min/m
12012083Ethan Bonneau00:29:41.3500:29:37.311-14 Yrs 12128Male7373Folsom9:34 min/m
135135608Nathaniel Thorman-Gilwee00:30:49.9200:30:30.471-14 Yrs 131314Male7777Fair Oaks9:56 min/m
138138314Tatum Hutchinson00:30:58.0400:30:41.031-14 Yrs 141410Male7878Aurora9:59 min/m
146146662Ryland Wilson00:31:28.0800:30:57.281-14 Yrs 151510Male8484Orangevale10:09 min/m
149149749Teran Frost-Hurzel00:31:34.3300:31:04.331-14 Yrs 161614Male8585Somerset10:11 min/m
15815898David Brown00:32:18.0200:31:29.601-14 Yrs 17177Male8989Citrus Heights10:25 min/m
211211295Max Higgins00:34:25.0300:33:56.581-14 Yrs 18189Male112112Folsom11:06 min/m
213213294Mason Higgins00:34:25.6600:33:57.871-14 Yrs 191911Male114114Folsom11:06 min/m
Page 1 of 11 (507 items)